sensor_id;sensor_type;location;lat;lon;timestamp;P1;durP1;ratioP1;P2;durP2;ratioP2
21927;SDS011;11128;51.096;17.190;2023-05-07T00:01:28;5.18;;;3.75;;
21927;SDS011;11128;51.096;17.190;2023-05-07T00:06:29;9.82;;;4.78;;
21927;SDS011;11128;51.096;17.190;2023-05-07T00:11:31;5.30;;;3.90;;
21927;SDS011;11128;51.096;17.190;2023-05-07T00:16:33;8.02;;;4.60;;
21927;SDS011;11128;51.096;17.190;2023-05-07T00:21:34;9.80;;;4.93;;
21927;SDS011;11128;51.096;17.190;2023-05-07T00:26:36;8.52;;;5.43;;
21927;SDS011;11128;51.096;17.190;2023-05-07T00:31:37;5.85;;;3.83;;
21927;SDS011;11128;51.096;17.190;2023-05-07T00:36:38;7.38;;;4.18;;
21927;SDS011;11128;51.096;17.190;2023-05-07T00:41:39;7.65;;;3.50;;
21927;SDS011;11128;51.096;17.190;2023-05-07T00:46:41;5.97;;;4.07;;
21927;SDS011;11128;51.096;17.190;2023-05-07T00:51:42;8.63;;;4.47;;
21927;SDS011;11128;51.096;17.190;2023-05-07T00:56:44;8.55;;;3.85;;
21927;SDS011;11128;51.096;17.190;2023-05-07T01:01:46;4.35;;;3.50;;
21927;SDS011;11128;51.096;17.190;2023-05-07T01:06:47;5.57;;;3.95;;
21927;SDS011;11128;51.096;17.190;2023-05-07T01:11:50;5.68;;;3.65;;
21927;SDS011;11128;51.096;17.190;2023-05-07T01:16:53;6.35;;;3.85;;
21927;SDS011;11128;51.096;17.190;2023-05-07T01:21:55;7.53;;;4.13;;
21927;SDS011;11128;51.096;17.190;2023-05-07T01:27:07;6.75;;;3.75;;
21927;SDS011;11128;51.096;17.190;2023-05-07T01:32:09;6.88;;;3.88;;
21927;SDS011;11128;51.096;17.190;2023-05-07T01:37:12;5.80;;;4.40;;
21927;SDS011;11128;51.096;17.190;2023-05-07T01:42:14;8.90;;;4.80;;
21927;SDS011;11128;51.096;17.190;2023-05-07T01:47:16;8.73;;;4.93;;
21927;SDS011;11128;51.096;17.190;2023-05-07T01:52:18;5.90;;;4.32;;
21927;SDS011;11128;51.096;17.190;2023-05-07T01:57:20;7.40;;;4.05;;
21927;SDS011;11128;51.096;17.190;2023-05-07T02:02:21;7.47;;;3.72;;
21927;SDS011;11128;51.096;17.190;2023-05-07T02:07:22;6.47;;;3.63;;
21927;SDS011;11128;51.096;17.190;2023-05-07T02:12:24;4.90;;;3.00;;
21927;SDS011;11128;51.096;17.190;2023-05-07T02:17:25;5.38;;;3.88;;
21927;SDS011;11128;51.096;17.190;2023-05-07T02:22:27;8.73;;;4.97;;
21927;SDS011;11128;51.096;17.190;2023-05-07T02:27:28;6.70;;;4.05;;
21927;SDS011;11128;51.096;17.190;2023-05-07T02:32:29;6.53;;;4.00;;
21927;SDS011;11128;51.096;17.190;2023-05-07T02:37:31;7.22;;;3.70;;
21927;SDS011;11128;51.096;17.190;2023-05-07T02:42:32;7.85;;;4.00;;
21927;SDS011;11128;51.096;17.190;2023-05-07T02:47:34;5.30;;;3.47;;
21927;SDS011;11128;51.096;17.190;2023-05-07T02:52:35;6.00;;;3.85;;
21927;SDS011;11128;51.096;17.190;2023-05-07T02:57:37;7.45;;;3.47;;
21927;SDS011;11128;51.096;17.190;2023-05-07T03:02:38;6.25;;;4.15;;
21927;SDS011;11128;51.096;17.190;2023-05-07T03:07:39;5.47;;;3.72;;
21927;SDS011;11128;51.096;17.190;2023-05-07T03:12:45;8.23;;;3.58;;
21927;SDS011;11128;51.096;17.190;2023-05-07T03:17:46;7.30;;;4.10;;
21927;SDS011;11128;51.096;17.190;2023-05-07T03:22:48;7.32;;;4.13;;
21927;SDS011;11128;51.096;17.190;2023-05-07T03:27:49;8.02;;;3.90;;
21927;SDS011;11128;51.096;17.190;2023-05-07T03:32:51;5.13;;;4.25;;
21927;SDS011;11128;51.096;17.190;2023-05-07T03:37:52;6.93;;;3.92;;
21927;SDS011;11128;51.096;17.190;2023-05-07T03:42:54;7.32;;;4.47;;
21927;SDS011;11128;51.096;17.190;2023-05-07T03:47:55;5.75;;;3.75;;
21927;SDS011;11128;51.096;17.190;2023-05-07T03:52:57;6.55;;;3.83;;
21927;SDS011;11128;51.096;17.190;2023-05-07T03:57:58;5.93;;;3.75;;
21927;SDS011;11128;51.096;17.190;2023-05-07T04:02:59;6.45;;;3.72;;
21927;SDS011;11128;51.096;17.190;2023-05-07T04:08:01;9.13;;;3.33;;
21927;SDS011;11128;51.096;17.190;2023-05-07T04:13:03;5.47;;;3.97;;
21927;SDS011;11128;51.096;17.190;2023-05-07T04:18:04;4.05;;;3.08;;
21927;SDS011;11128;51.096;17.190;2023-05-07T04:23:05;5.07;;;2.95;;
21927;SDS011;11128;51.096;17.190;2023-05-07T04:28:07;6.03;;;3.28;;
21927;SDS011;11128;51.096;17.190;2023-05-07T04:33:09;5.25;;;3.60;;
21927;SDS011;11128;51.096;17.190;2023-05-07T04:38:11;4.75;;;3.30;;
21927;SDS011;11128;51.096;17.190;2023-05-07T04:43:12;5.15;;;3.33;;
21927;SDS011;11128;51.096;17.190;2023-05-07T04:48:13;4.85;;;2.97;;
21927;SDS011;11128;51.096;17.190;2023-05-07T04:53:16;4.72;;;2.97;;
21927;SDS011;11128;51.096;17.190;2023-05-07T04:58:18;7.72;;;3.20;;
21927;SDS011;11128;51.096;17.190;2023-05-07T05:03:20;5.32;;;3.03;;
21927;SDS011;11128;51.096;17.190;2023-05-07T05:08:21;4.78;;;3.22;;
21927;SDS011;11128;51.096;17.190;2023-05-07T05:13:22;5.38;;;3.95;;
21927;SDS011;11128;51.096;17.190;2023-05-07T05:18:24;5.15;;;3.92;;
21927;SDS011;11128;51.096;17.190;2023-05-07T05:23:25;5.18;;;4.25;;
21927;SDS011;11128;51.096;17.190;2023-05-07T05:28:27;7.03;;;4.30;;
21927;SDS011;11128;51.096;17.190;2023-05-07T05:33:28;6.20;;;3.95;;
21927;SDS011;11128;51.096;17.190;2023-05-07T05:38:30;4.95;;;4.07;;
21927;SDS011;11128;51.096;17.190;2023-05-07T05:43:31;4.72;;;3.67;;
21927;SDS011;11128;51.096;17.190;2023-05-07T05:48:32;5.57;;;3.80;;
21927;SDS011;11128;51.096;17.190;2023-05-07T05:53:34;7.88;;;3.95;;
21927;SDS011;11128;51.096;17.190;2023-05-07T05:58:36;5.18;;;3.80;;
21927;SDS011;11128;51.096;17.190;2023-05-07T06:03:37;4.93;;;3.00;;
21927;SDS011;11128;51.096;17.190;2023-05-07T06:08:38;7.03;;;3.30;;
21927;SDS011;11128;51.096;17.190;2023-05-07T06:13:39;7.40;;;3.03;;
21927;SDS011;11128;51.096;17.190;2023-05-07T06:18:41;4.65;;;3.13;;
21927;SDS011;11128;51.096;17.190;2023-05-07T06:23:42;4.40;;;2.92;;
21927;SDS011;11128;51.096;17.190;2023-05-07T06:28:44;5.45;;;2.65;;
21927;SDS011;11128;51.096;17.190;2023-05-07T06:33:45;7.10;;;3.58;;
21927;SDS011;11128;51.096;17.190;2023-05-07T06:38:46;4.50;;;3.22;;
21927;SDS011;11128;51.096;17.190;2023-05-07T06:43:47;4.40;;;3.05;;
21927;SDS011;11128;51.096;17.190;2023-05-07T06:48:49;8.45;;;3.30;;
21927;SDS011;11128;51.096;17.190;2023-05-07T06:53:50;4.07;;;2.53;;
21927;SDS011;11128;51.096;17.190;2023-05-07T06:58:51;6.93;;;3.35;;
21927;SDS011;11128;51.096;17.190;2023-05-07T07:03:53;3.35;;;3.05;;
21927;SDS011;11128;51.096;17.190;2023-05-07T07:08:54;8.95;;;4.13;;
21927;SDS011;11128;51.096;17.190;2023-05-07T07:13:55;9.85;;;4.10;;
21927;SDS011;11128;51.096;17.190;2023-05-07T07:18:57;8.10;;;3.85;;
21927;SDS011;11128;51.096;17.190;2023-05-07T07:23:58;16.75;;;6.68;;
21927;SDS011;11128;51.096;17.190;2023-05-07T07:28:59;12.40;;;4.82;;
21927;SDS011;11128;51.096;17.190;2023-05-07T07:34:01;12.38;;;5.53;;
21927;SDS011;11128;51.096;17.190;2023-05-07T07:39:02;15.27;;;6.72;;
21927;SDS011;11128;51.096;17.190;2023-05-07T07:44:03;26.88;;;9.45;;
21927;SDS011;11128;51.096;17.190;2023-05-07T07:49:07;33.53;;;10.73;;
21927;SDS011;11128;51.096;17.190;2023-05-07T07:54:09;37.33;;;13.20;;
21927;SDS011;11128;51.096;17.190;2023-05-07T07:59:10;16.40;;;7.18;;
21927;SDS011;11128;51.096;17.190;2023-05-07T08:04:12;13.23;;;5.65;;
21927;SDS011;11128;51.096;17.190;2023-05-07T08:09:13;20.00;;;8.57;;
21927;SDS011;11128;51.096;17.190;2023-05-07T08:14:14;13.90;;;8.07;;
21927;SDS011;11128;51.096;17.190;2023-05-07T08:19:16;43.38;;;18.05;;
21927;SDS011;11128;51.096;17.190;2023-05-07T08:24:17;19.83;;;10.13;;
21927;SDS011;11128;51.096;17.190;2023-05-07T08:29:19;37.72;;;19.40;;
21927;SDS011;11128;51.096;17.190;2023-05-07T08:34:21;24.30;;;15.10;;
21927;SDS011;11128;51.096;17.190;2023-05-07T08:39:23;12.82;;;7.40;;
21927;SDS011;11128;51.096;17.190;2023-05-07T08:44:25;8.25;;;4.85;;
21927;SDS011;11128;51.096;17.190;2023-05-07T08:49:29;9.73;;;5.30;;
21927;SDS011;11128;51.096;17.190;2023-05-07T08:54:30;6.57;;;4.63;;
21927;SDS011;11128;51.096;17.190;2023-05-07T08:59:32;8.15;;;4.85;;
21927;SDS011;11128;51.096;17.190;2023-05-07T09:04:33;6.00;;;4.10;;
21927;SDS011;11128;51.096;17.190;2023-05-07T09:09:35;6.35;;;4.07;;
21927;SDS011;11128;51.096;17.190;2023-05-07T09:14:37;6.35;;;4.07;;
21927;SDS011;11128;51.096;17.190;2023-05-07T09:19:39;5.15;;;3.08;;
21927;SDS011;11128;51.096;17.190;2023-05-07T09:24:44;3.80;;;3.10;;
21927;SDS011;11128;51.096;17.190;2023-05-07T09:29:49;6.93;;;4.15;;
21927;SDS011;11128;51.096;17.190;2023-05-07T09:34:51;6.07;;;3.97;;
21927;SDS011;11128;51.096;17.190;2023-05-07T09:39:52;6.47;;;3.88;;
21927;SDS011;11128;51.096;17.190;2023-05-07T09:44:54;7.03;;;3.90;;
21927;SDS011;11128;51.096;17.190;2023-05-07T09:49:56;6.45;;;4.07;;
21927;SDS011;11128;51.096;17.190;2023-05-07T09:55:00;5.55;;;4.10;;
21927;SDS011;11128;51.096;17.190;2023-05-07T10:00:03;5.72;;;3.20;;
21927;SDS011;11128;51.096;17.190;2023-05-07T10:05:05;5.38;;;3.45;;
21927;SDS011;11128;51.096;17.190;2023-05-07T10:10:07;8.13;;;4.10;;
21927;SDS011;11128;51.096;17.190;2023-05-07T10:15:09;7.13;;;4.13;;
21927;SDS011;11128;51.096;17.190;2023-05-07T10:20:12;5.20;;;3.20;;
21927;SDS011;11128;51.096;17.190;2023-05-07T10:25:14;4.97;;;2.63;;
21927;SDS011;11128;51.096;17.190;2023-05-07T10:30:32;2.92;;;2.60;;
21927;SDS011;11128;51.096;17.190;2023-05-07T10:35:55;3.15;;;2.67;;
21927;SDS011;11128;51.096;17.190;2023-05-07T10:41:00;4.53;;;3.03;;
21927;SDS011;11128;51.096;17.190;2023-05-07T10:51:35;5.82;;;3.88;;
21927;SDS011;11128;51.096;17.190;2023-05-07T10:56:38;5.25;;;3.38;;
21927;SDS011;11128;51.096;17.190;2023-05-07T11:01:53;9.70;;;5.32;;
21927;SDS011;11128;51.096;17.190;2023-05-07T11:07:40;22.00;;;10.25;;
21927;SDS011;11128;51.096;17.190;2023-05-07T11:17:52;7.45;;;3.90;;
21927;SDS011;11128;51.096;17.190;2023-05-07T11:22:54;5.18;;;3.60;;
21927;SDS011;11128;51.096;17.190;2023-05-07T11:28:04;5.05;;;2.88;;
21927;SDS011;11128;51.096;17.190;2023-05-07T11:33:10;6.55;;;2.83;;
21927;SDS011;11128;51.096;17.190;2023-05-07T11:38:12;4.45;;;3.25;;
21927;SDS011;11128;51.096;17.190;2023-05-07T11:43:14;5.05;;;3.33;;
21927;SDS011;11128;51.096;17.190;2023-05-07T11:48:16;6.45;;;3.80;;
21927;SDS011;11128;51.096;17.190;2023-05-07T11:53:18;5.47;;;3.45;;
21927;SDS011;11128;51.096;17.190;2023-05-07T11:58:21;5.90;;;3.42;;
21927;SDS011;11128;51.096;17.190;2023-05-07T12:03:24;8.32;;;4.53;;
21927;SDS011;11128;51.096;17.190;2023-05-07T12:08:25;9.70;;;4.82;;
21927;SDS011;11128;51.096;17.190;2023-05-07T12:13:27;6.68;;;4.03;;
21927;SDS011;11128;51.096;17.190;2023-05-07T12:18:28;5.53;;;3.80;;
21927;SDS011;11128;51.096;17.190;2023-05-07T12:23:31;6.88;;;3.33;;
21927;SDS011;11128;51.096;17.190;2023-05-07T12:28:36;5.55;;;3.80;;
21927;SDS011;11128;51.096;17.190;2023-05-07T12:33:39;13.13;;;7.10;;
21927;SDS011;11128;51.096;17.190;2023-05-07T12:38:40;4.55;;;4.05;;
21927;SDS011;11128;51.096;17.190;2023-05-07T12:43:45;6.55;;;3.90;;
21927;SDS011;11128;51.096;17.190;2023-05-07T12:48:47;7.65;;;3.95;;
21927;SDS011;11128;51.096;17.190;2023-05-07T12:53:49;8.70;;;3.85;;
21927;SDS011;11128;51.096;17.190;2023-05-07T12:58:50;5.18;;;3.78;;
21927;SDS011;11128;51.096;17.190;2023-05-07T13:03:51;4.97;;;3.33;;
21927;SDS011;11128;51.096;17.190;2023-05-07T13:08:53;7.07;;;3.60;;
21927;SDS011;11128;51.096;17.190;2023-05-07T13:13:54;5.90;;;3.85;;
21927;SDS011;11128;51.096;17.190;2023-05-07T13:18:55;6.07;;;4.18;;
21927;SDS011;11128;51.096;17.190;2023-05-07T13:23:57;4.53;;;3.20;;
21927;SDS011;11128;51.096;17.190;2023-05-07T13:28:58;2.63;;;2.42;;
21927;SDS011;11128;51.096;17.190;2023-05-07T13:34:00;6.18;;;3.25;;
21927;SDS011;11128;51.096;17.190;2023-05-07T13:39:01;4.43;;;3.00;;
21927;SDS011;11128;51.096;17.190;2023-05-07T13:44:03;21.73;;;9.30;;
21927;SDS011;11128;51.096;17.190;2023-05-07T13:49:04;11.10;;;5.38;;
21927;SDS011;11128;51.096;17.190;2023-05-07T13:54:06;7.95;;;4.25;;
21927;SDS011;11128;51.096;17.190;2023-05-07T13:59:08;5.72;;;3.17;;
21927;SDS011;11128;51.096;17.190;2023-05-07T14:04:10;3.58;;;2.90;;
21927;SDS011;11128;51.096;17.190;2023-05-07T14:09:11;11.00;;;6.05;;
21927;SDS011;11128;51.096;17.190;2023-05-07T14:14:13;5.40;;;3.33;;
21927;SDS011;11128;51.096;17.190;2023-05-07T14:19:15;5.82;;;2.90;;
21927;SDS011;11128;51.096;17.190;2023-05-07T14:24:16;4.93;;;3.53;;
21927;SDS011;11128;51.096;17.190;2023-05-07T14:29:18;6.97;;;3.88;;
21927;SDS011;11128;51.096;17.190;2023-05-07T14:34:19;4.78;;;3.17;;
21927;SDS011;11128;51.096;17.190;2023-05-07T14:39:21;6.15;;;3.38;;
21927;SDS011;11128;51.096;17.190;2023-05-07T14:44:22;4.93;;;3.88;;
21927;SDS011;11128;51.096;17.190;2023-05-07T14:49:23;13.55;;;7.05;;
21927;SDS011;11128;51.096;17.190;2023-05-07T14:54:25;8.70;;;5.85;;
21927;SDS011;11128;51.096;17.190;2023-05-07T14:59:26;12.23;;;6.60;;
21927;SDS011;11128;51.096;17.190;2023-05-07T15:04:28;12.68;;;4.82;;
21927;SDS011;11128;51.096;17.190;2023-05-07T15:09:29;11.10;;;4.80;;
21927;SDS011;11128;51.096;17.190;2023-05-07T15:14:30;7.32;;;4.07;;
21927;SDS011;11128;51.096;17.190;2023-05-07T15:19:31;60.45;;;20.95;;
21927;SDS011;11128;51.096;17.190;2023-05-07T15:24:33;30.58;;;17.50;;
21927;SDS011;11128;51.096;17.190;2023-05-07T15:29:34;9.15;;;6.05;;
21927;SDS011;11128;51.096;17.190;2023-05-07T15:34:35;37.17;;;11.98;;
21927;SDS011;11128;51.096;17.190;2023-05-07T15:39:36;51.33;;;15.13;;
21927;SDS011;11128;51.096;17.190;2023-05-07T15:44:38;65.38;;;19.70;;
21927;SDS011;11128;51.096;17.190;2023-05-07T15:49:40;22.60;;;9.63;;
21927;SDS011;11128;51.096;17.190;2023-05-07T15:54:42;13.38;;;7.40;;
21927;SDS011;11128;51.096;17.190;2023-05-07T15:59:44;26.17;;;11.93;;
21927;SDS011;11128;51.096;17.190;2023-05-07T16:04:45;48.30;;;22.27;;
21927;SDS011;11128;51.096;17.190;2023-05-07T16:09:47;25.00;;;10.82;;
21927;SDS011;11128;51.096;17.190;2023-05-07T16:14:48;16.00;;;9.27;;
21927;SDS011;11128;51.096;17.190;2023-05-07T16:19:51;8.73;;;4.72;;
21927;SDS011;11128;51.096;17.190;2023-05-07T16:24:52;9.02;;;4.95;;
21927;SDS011;11128;51.096;17.190;2023-05-07T16:29:54;7.03;;;4.22;;
21927;SDS011;11128;51.096;17.190;2023-05-07T16:34:55;7.15;;;4.13;;
21927;SDS011;11128;51.096;17.190;2023-05-07T16:39:56;7.90;;;4.22;;
21927;SDS011;11128;51.096;17.190;2023-05-07T16:44:59;9.73;;;5.60;;
21927;SDS011;11128;51.096;17.190;2023-05-07T16:50:01;7.50;;;4.82;;
21927;SDS011;11128;51.096;17.190;2023-05-07T16:55:05;8.70;;;4.78;;
21927;SDS011;11128;51.096;17.190;2023-05-07T17:00:06;26.00;;;12.73;;
21927;SDS011;11128;51.096;17.190;2023-05-07T17:05:09;15.05;;;8.38;;
21927;SDS011;11128;51.096;17.190;2023-05-07T17:10:10;13.40;;;7.13;;
21927;SDS011;11128;51.096;17.190;2023-05-07T17:15:11;13.40;;;7.28;;
21927;SDS011;11128;51.096;17.190;2023-05-07T17:20:13;10.88;;;5.75;;
21927;SDS011;11128;51.096;17.190;2023-05-07T17:25:14;23.08;;;10.00;;
21927;SDS011;11128;51.096;17.190;2023-05-07T17:30:16;19.48;;;9.35;;
21927;SDS011;11128;51.096;17.190;2023-05-07T17:35:17;9.38;;;6.13;;
21927;SDS011;11128;51.096;17.190;2023-05-07T17:40:19;10.38;;;6.40;;
21927;SDS011;11128;51.096;17.190;2023-05-07T17:45:24;15.85;;;7.25;;
21927;SDS011;11128;51.096;17.190;2023-05-07T17:50:25;17.27;;;9.32;;
21927;SDS011;11128;51.096;17.190;2023-05-07T17:55:26;34.72;;;11.90;;
21927;SDS011;11128;51.096;17.190;2023-05-07T18:00:32;21.63;;;9.07;;
21927;SDS011;11128;51.096;17.190;2023-05-07T18:05:34;14.57;;;7.00;;
21927;SDS011;11128;51.096;17.190;2023-05-07T18:10:36;10.23;;;5.43;;
21927;SDS011;11128;51.096;17.190;2023-05-07T18:15:38;10.73;;;6.07;;
21927;SDS011;11128;51.096;17.190;2023-05-07T18:20:40;14.43;;;7.57;;
21927;SDS011;11128;51.096;17.190;2023-05-07T18:25:42;15.82;;;6.85;;
21927;SDS011;11128;51.096;17.190;2023-05-07T18:30:43;10.20;;;5.53;;
21927;SDS011;11128;51.096;17.190;2023-05-07T18:35:44;10.85;;;6.60;;
21927;SDS011;11128;51.096;17.190;2023-05-07T18:40:46;20.42;;;9.57;;
21927;SDS011;11128;51.096;17.190;2023-05-07T18:45:47;19.27;;;9.35;;
21927;SDS011;11128;51.096;17.190;2023-05-07T18:50:49;14.90;;;10.05;;
21927;SDS011;11128;51.096;17.190;2023-05-07T18:55:51;13.48;;;7.78;;
21927;SDS011;11128;51.096;17.190;2023-05-07T19:00:52;14.02;;;8.45;;
21927;SDS011;11128;51.096;17.190;2023-05-07T19:05:55;18.10;;;6.72;;
21927;SDS011;11128;51.096;17.190;2023-05-07T19:10:56;10.25;;;5.55;;
21927;SDS011;11128;51.096;17.190;2023-05-07T19:15:58;7.53;;;5.20;;
21927;SDS011;11128;51.096;17.190;2023-05-07T19:20:59;9.45;;;5.60;;
21927;SDS011;11128;51.096;17.190;2023-05-07T19:26:01;9.95;;;5.35;;
21927;SDS011;11128;51.096;17.190;2023-05-07T19:31:02;12.10;;;6.72;;
21927;SDS011;11128;51.096;17.190;2023-05-07T19:36:04;10.35;;;6.57;;
21927;SDS011;11128;51.096;17.190;2023-05-07T19:41:05;9.35;;;6.68;;
21927;SDS011;11128;51.096;17.190;2023-05-07T19:46:07;10.15;;;6.28;;
21927;SDS011;11128;51.096;17.190;2023-05-07T19:51:08;11.60;;;7.03;;
21927;SDS011;11128;51.096;17.190;2023-05-07T19:56:10;9.07;;;5.20;;
21927;SDS011;11128;51.096;17.190;2023-05-07T20:01:12;18.05;;;8.88;;
21927;SDS011;11128;51.096;17.190;2023-05-07T20:06:13;13.73;;;7.85;;
21927;SDS011;11128;51.096;17.190;2023-05-07T20:11:14;17.45;;;7.60;;
21927;SDS011;11128;51.096;17.190;2023-05-07T20:16:16;11.55;;;7.00;;
21927;SDS011;11128;51.096;17.190;2023-05-07T20:21:17;9.38;;;5.13;;
21927;SDS011;11128;51.096;17.190;2023-05-07T20:26:18;10.57;;;5.78;;
21927;SDS011;11128;51.096;17.190;2023-05-07T20:31:20;15.20;;;7.13;;
21927;SDS011;11128;51.096;17.190;2023-05-07T20:36:22;9.55;;;4.68;;
21927;SDS011;11128;51.096;17.190;2023-05-07T20:41:25;5.68;;;4.22;;
21927;SDS011;11128;51.096;17.190;2023-05-07T20:46:27;8.00;;;4.22;;
21927;SDS011;11128;51.096;17.190;2023-05-07T20:51:29;7.40;;;3.28;;
21927;SDS011;11128;51.096;17.190;2023-05-07T20:56:31;8.80;;;3.53;;
21927;SDS011;11128;51.096;17.190;2023-05-07T21:01:32;5.40;;;3.20;;
21927;SDS011;11128;51.096;17.190;2023-05-07T21:06:34;5.13;;;3.28;;
21927;SDS011;11128;51.096;17.190;2023-05-07T21:11:35;8.45;;;4.15;;
21927;SDS011;11128;51.096;17.190;2023-05-07T21:16:36;3.70;;;2.58;;
21927;SDS011;11128;51.096;17.190;2023-05-07T21:21:38;5.43;;;3.38;;
21927;SDS011;11128;51.096;17.190;2023-05-07T21:26:41;8.45;;;3.40;;
21927;SDS011;11128;51.096;17.190;2023-05-07T21:31:43;5.82;;;3.17;;
21927;SDS011;11128;51.096;17.190;2023-05-07T21:36:44;16.25;;;6.07;;
21927;SDS011;11128;51.096;17.190;2023-05-07T21:41:45;15.00;;;7.97;;
21927;SDS011;11128;51.096;17.190;2023-05-07T21:46:47;9.73;;;5.05;;
21927;SDS011;11128;51.096;17.190;2023-05-07T21:51:48;7.00;;;4.60;;
21927;SDS011;11128;51.096;17.190;2023-05-07T21:56:49;8.07;;;4.78;;
21927;SDS011;11128;51.096;17.190;2023-05-07T22:01:51;5.85;;;4.57;;
21927;SDS011;11128;51.096;17.190;2023-05-07T22:06:52;6.30;;;3.97;;
21927;SDS011;11128;51.096;17.190;2023-05-07T22:11:53;8.15;;;4.68;;
21927;SDS011;11128;51.096;17.190;2023-05-07T22:16:54;12.05;;;5.65;;
21927;SDS011;11128;51.096;17.190;2023-05-07T22:21:56;15.07;;;6.75;;
21927;SDS011;11128;51.096;17.190;2023-05-07T22:26:57;18.85;;;6.25;;
21927;SDS011;11128;51.096;17.190;2023-05-07T22:31:58;21.13;;;7.40;;
21927;SDS011;11128;51.096;17.190;2023-05-07T22:37:00;21.92;;;6.68;;
21927;SDS011;11128;51.096;17.190;2023-05-07T22:42:01;11.18;;;5.32;;
21927;SDS011;11128;51.096;17.190;2023-05-07T22:47:02;13.23;;;6.45;;
21927;SDS011;11128;51.096;17.190;2023-05-07T22:52:04;12.10;;;6.00;;
21927;SDS011;11128;51.096;17.190;2023-05-07T22:57:06;12.43;;;5.85;;
21927;SDS011;11128;51.096;17.190;2023-05-07T23:02:07;15.57;;;6.85;;
21927;SDS011;11128;51.096;17.190;2023-05-07T23:07:09;10.95;;;5.15;;
21927;SDS011;11128;51.096;17.190;2023-05-07T23:12:11;8.27;;;5.22;;
21927;SDS011;11128;51.096;17.190;2023-05-07T23:17:12;10.80;;;5.18;;
21927;SDS011;11128;51.096;17.190;2023-05-07T23:22:14;10.85;;;4.78;;
21927;SDS011;11128;51.096;17.190;2023-05-07T23:27:18;13.60;;;5.30;;
21927;SDS011;11128;51.096;17.190;2023-05-07T23:32:19;15.63;;;6.35;;
21927;SDS011;11128;51.096;17.190;2023-05-07T23:37:21;14.00;;;5.78;;
21927;SDS011;11128;51.096;17.190;2023-05-07T23:42:23;13.20;;;5.90;;
21927;SDS011;11128;51.096;17.190;2023-05-07T23:47:24;13.48;;;6.43;;
21927;SDS011;11128;51.096;17.190;2023-05-07T23:52:25;17.67;;;6.97;;
21927;SDS011;11128;51.096;17.190;2023-05-07T23:57:26;16.40;;;7.13;;
